sensor_id;sensor_type;location;lat;lon;timestamp;temperature;humidity
29093;DHT22;16167;48.768;14.984;2022-12-20T00:01:39;-2.10;78.70
29093;DHT22;16167;48.768;14.984;2022-12-20T00:04:07;-2.10;78.70
29093;DHT22;16167;48.768;14.984;2022-12-20T00:06:35;-2.10;75.50
29093;DHT22;16167;48.768;14.984;2022-12-20T00:09:04;-2.00;74.80
29093;DHT22;16167;48.768;14.984;2022-12-20T00:11:33;-2.10;73.70
29093;DHT22;16167;48.768;14.984;2022-12-20T00:14:03;-2.10;75.10
29093;DHT22;16167;48.768;14.984;2022-12-20T00:16:31;-2.10;76.80
29093;DHT22;16167;48.768;14.984;2022-12-20T00:19:00;-2.10;77.80
29093;DHT22;16167;48.768;14.984;2022-12-20T00:21:28;-2.10;77.70
29093;DHT22;16167;48.768;14.984;2022-12-20T00:23:56;-2.10;77.80
29093;DHT22;16167;48.768;14.984;2022-12-20T00:26:25;-2.10;74.70
29093;DHT22;16167;48.768;14.984;2022-12-20T00:28:53;-2.10;75.20
29093;DHT22;16167;48.768;14.984;2022-12-20T00:31:23;-2.10;74.90
29093;DHT22;16167;48.768;14.984;2022-12-20T00:33:51;-2.10;74.80
29093;DHT22;16167;48.768;14.984;2022-12-20T00:36:20;-2.20;76.70
29093;DHT22;16167;48.768;14.984;2022-12-20T00:38:49;-2.10;76.90
29093;DHT22;16167;48.768;14.984;2022-12-20T00:41:18;-2.10;77.00
29093;DHT22;16167;48.768;14.984;2022-12-20T00:43:46;-2.20;78.50
29093;DHT22;16167;48.768;14.984;2022-12-20T00:46:14;-2.20;79.60
29093;DHT22;16167;48.768;14.984;2022-12-20T00:48:44;-2.20;82.20
29093;DHT22;16167;48.768;14.984;2022-12-20T00:51:13;-2.20;82.70
29093;DHT22;16167;48.768;14.984;2022-12-20T00:53:41;-2.20;81.70
29093;DHT22;16167;48.768;14.984;2022-12-20T00:56:09;-2.20;80.30
29093;DHT22;16167;48.768;14.984;2022-12-20T00:58:38;-2.20;80.20
29093;DHT22;16167;48.768;14.984;2022-12-20T01:01:06;-2.20;82.40
29093;DHT22;16167;48.768;14.984;2022-12-20T01:03:40;-2.20;83.90
29093;DHT22;16167;48.768;14.984;2022-12-20T01:06:10;-2.20;83.90
29093;DHT22;16167;48.768;14.984;2022-12-20T01:08:38;-2.20;82.60
29093;DHT22;16167;48.768;14.984;2022-12-20T01:11:07;-2.20;84.60
29093;DHT22;16167;48.768;14.984;2022-12-20T01:13:37;-2.20;81.80
29093;DHT22;16167;48.768;14.984;2022-12-20T01:16:06;-2.20;79.90
29093;DHT22;16167;48.768;14.984;2022-12-20T01:18:34;-2.20;81.30
29093;DHT22;16167;48.768;14.984;2022-12-20T01:21:03;-2.20;82.20
29093;DHT22;16167;48.768;14.984;2022-12-20T01:23:33;-2.30;83.80
29093;DHT22;16167;48.768;14.984;2022-12-20T01:26:01;-2.30;86.10
29093;DHT22;16167;48.768;14.984;2022-12-20T01:28:30;-2.20;83.70
29093;DHT22;16167;48.768;14.984;2022-12-20T01:30:58;-2.30;83.80
29093;DHT22;16167;48.768;14.984;2022-12-20T01:33:26;-2.30;85.30
29093;DHT22;16167;48.768;14.984;2022-12-20T01:35:55;-2.30;84.40
29093;DHT22;16167;48.768;14.984;2022-12-20T01:38:23;-2.30;83.10
29093;DHT22;16167;48.768;14.984;2022-12-20T01:40:53;-2.30;82.50
29093;DHT22;16167;48.768;14.984;2022-12-20T01:43:21;-2.30;83.00
29093;DHT22;16167;48.768;14.984;2022-12-20T01:45:50;-2.30;84.00
29093;DHT22;16167;48.768;14.984;2022-12-20T01:48:19;-2.30;81.60
29093;DHT22;16167;48.768;14.984;2022-12-20T01:50:48;-2.30;82.80
29093;DHT22;16167;48.768;14.984;2022-12-20T01:53:17;-2.30;80.50
29093;DHT22;16167;48.768;14.984;2022-12-20T01:55:45;-2.30;79.80
29093;DHT22;16167;48.768;14.984;2022-12-20T01:58:15;-2.30;79.40
29093;DHT22;16167;48.768;14.984;2022-12-20T02:00:43;-2.30;78.20
29093;DHT22;16167;48.768;14.984;2022-12-20T02:03:14;-2.30;79.40
29093;DHT22;16167;48.768;14.984;2022-12-20T02:05:44;-2.30;80.50
29093;DHT22;16167;48.768;14.984;2022-12-20T02:08:12;-2.30;80.60
29093;DHT22;16167;48.768;14.984;2022-12-20T02:10:46;-2.30;78.70
29093;DHT22;16167;48.768;14.984;2022-12-20T02:13:18;-2.30;80.20
29093;DHT22;16167;48.768;14.984;2022-12-20T02:15:48;-2.30;80.00
29093;DHT22;16167;48.768;14.984;2022-12-20T02:18:21;-2.40;82.90
29093;DHT22;16167;48.768;14.984;2022-12-20T02:20:53;-2.40;83.10
29093;DHT22;16167;48.768;14.984;2022-12-20T02:23:31;-2.40;84.00
29093;DHT22;16167;48.768;14.984;2022-12-20T02:26:08;-2.40;84.40
29093;DHT22;16167;48.768;14.984;2022-12-20T02:28:48;-2.40;85.20
29093;DHT22;16167;48.768;14.984;2022-12-20T02:31:24;-2.50;85.80
29093;DHT22;16167;48.768;14.984;2022-12-20T02:33:53;-2.50;85.60
29093;DHT22;16167;48.768;14.984;2022-12-20T02:36:22;-2.40;83.40
29093;DHT22;16167;48.768;14.984;2022-12-20T02:38:51;-2.40;83.10
29093;DHT22;16167;48.768;14.984;2022-12-20T02:41:19;-2.50;83.90
29093;DHT22;16167;48.768;14.984;2022-12-20T02:43:49;-2.40;85.60
29093;DHT22;16167;48.768;14.984;2022-12-20T02:46:37;-2.40;82.30
29093;DHT22;16167;48.768;14.984;2022-12-20T02:49:06;-2.40;82.20
29093;DHT22;16167;48.768;14.984;2022-12-20T02:51:36;-2.50;81.00
29093;DHT22;16167;48.768;14.984;2022-12-20T02:54:05;-2.50;83.50
29093;DHT22;16167;48.768;14.984;2022-12-20T02:56:33;-2.50;83.20
29093;DHT22;16167;48.768;14.984;2022-12-20T02:59:05;-2.50;84.40
29093;DHT22;16167;48.768;14.984;2022-12-20T03:01:35;-2.60;86.10
29093;DHT22;16167;48.768;14.984;2022-12-20T03:04:06;-2.60;86.50
29093;DHT22;16167;48.768;14.984;2022-12-20T03:06:34;-2.60;87.20
29093;DHT22;16167;48.768;14.984;2022-12-20T03:09:02;-2.50;84.40
29093;DHT22;16167;48.768;14.984;2022-12-20T03:11:30;-2.50;83.10
29093;DHT22;16167;48.768;14.984;2022-12-20T03:13:58;-2.50;84.70
29093;DHT22;16167;48.768;14.984;2022-12-20T03:16:26;-2.50;84.00
29093;DHT22;16167;48.768;14.984;2022-12-20T03:18:53;-2.60;85.90
29093;DHT22;16167;48.768;14.984;2022-12-20T03:21:23;-2.60;84.70
29093;DHT22;16167;48.768;14.984;2022-12-20T03:23:51;-2.50;85.40
29093;DHT22;16167;48.768;14.984;2022-12-20T03:26:18;-2.50;80.20
29093;DHT22;16167;48.768;14.984;2022-12-20T03:28:46;-2.60;80.30
29093;DHT22;16167;48.768;14.984;2022-12-20T03:31:14;-2.60;81.90
29093;DHT22;16167;48.768;14.984;2022-12-20T03:33:42;-2.50;80.60
29093;DHT22;16167;48.768;14.984;2022-12-20T03:36:10;-2.50;79.90
29093;DHT22;16167;48.768;14.984;2022-12-20T03:38:39;-2.50;79.50
29093;DHT22;16167;48.768;14.984;2022-12-20T03:41:07;-2.50;78.70
29093;DHT22;16167;48.768;14.984;2022-12-20T03:43:35;-2.60;76.70
29093;DHT22;16167;48.768;14.984;2022-12-20T03:46:03;-2.60;77.30
29093;DHT22;16167;48.768;14.984;2022-12-20T03:48:31;-2.60;79.70
29093;DHT22;16167;48.768;14.984;2022-12-20T03:50:59;-2.50;80.00
29093;DHT22;16167;48.768;14.984;2022-12-20T03:53:27;-2.50;78.30
29093;DHT22;16167;48.768;14.984;2022-12-20T03:55:56;-2.60;79.00
29093;DHT22;16167;48.768;14.984;2022-12-20T03:58:24;-2.60;79.20
29093;DHT22;16167;48.768;14.984;2022-12-20T04:00:52;-2.60;78.40
29093;DHT22;16167;48.768;14.984;2022-12-20T04:03:20;-2.60;78.30
29093;DHT22;16167;48.768;14.984;2022-12-20T04:05:47;-2.60;79.30
29093;DHT22;16167;48.768;14.984;2022-12-20T04:08:15;-2.70;81.50
29093;DHT22;16167;48.768;14.984;2022-12-20T04:10:43;-2.60;82.30
29093;DHT22;16167;48.768;14.984;2022-12-20T04:13:30;-2.70;83.80
29093;DHT22;16167;48.768;14.984;2022-12-20T04:15:58;-2.70;84.70
29093;DHT22;16167;48.768;14.984;2022-12-20T04:18:27;-2.60;81.90
29093;DHT22;16167;48.768;14.984;2022-12-20T04:20:54;-2.60;82.30
29093;DHT22;16167;48.768;14.984;2022-12-20T04:23:22;-2.60;82.50
29093;DHT22;16167;48.768;14.984;2022-12-20T04:25:50;-2.60;84.20
29093;DHT22;16167;48.768;14.984;2022-12-20T04:28:18;-2.70;83.50
29093;DHT22;16167;48.768;14.984;2022-12-20T04:30:47;-2.70;85.60
29093;DHT22;16167;48.768;14.984;2022-12-20T04:33:15;-2.70;85.90
29093;DHT22;16167;48.768;14.984;2022-12-20T04:35:43;-2.70;86.50
29093;DHT22;16167;48.768;14.984;2022-12-20T04:38:11;-2.70;86.30
29093;DHT22;16167;48.768;14.984;2022-12-20T04:40:39;-2.70;88.30
29093;DHT22;16167;48.768;14.984;2022-12-20T04:43:06;-2.70;87.00
29093;DHT22;16167;48.768;14.984;2022-12-20T04:45:34;-2.70;87.30
29093;DHT22;16167;48.768;14.984;2022-12-20T04:48:04;-2.70;87.50
29093;DHT22;16167;48.768;14.984;2022-12-20T04:50:52;-2.70;86.20
29093;DHT22;16167;48.768;14.984;2022-12-20T04:53:20;-2.70;86.70
29093;DHT22;16167;48.768;14.984;2022-12-20T04:56:06;-2.70;87.90
29093;DHT22;16167;48.768;14.984;2022-12-20T04:58:34;-2.80;87.70
29093;DHT22;16167;48.768;14.984;2022-12-20T05:01:02;-2.70;86.10
29093;DHT22;16167;48.768;14.984;2022-12-20T05:03:31;-2.70;83.90
29093;DHT22;16167;48.768;14.984;2022-12-20T05:05:59;-2.70;83.60
29093;DHT22;16167;48.768;14.984;2022-12-20T05:08:27;-2.70;83.10
29093;DHT22;16167;48.768;14.984;2022-12-20T05:10:55;-2.70;85.60
29093;DHT22;16167;48.768;14.984;2022-12-20T05:13:23;-2.70;84.10
29093;DHT22;16167;48.768;14.984;2022-12-20T05:15:51;-2.70;84.10
29093;DHT22;16167;48.768;14.984;2022-12-20T05:18:20;-2.70;82.00
29093;DHT22;16167;48.768;14.984;2022-12-20T05:20:49;-2.70;80.40
29093;DHT22;16167;48.768;14.984;2022-12-20T05:23:38;-2.70;79.10
29093;DHT22;16167;48.768;14.984;2022-12-20T05:26:23;-2.70;76.20
29093;DHT22;16167;48.768;14.984;2022-12-20T05:28:51;-2.70;76.10
29093;DHT22;16167;48.768;14.984;2022-12-20T05:31:19;-2.70;76.40
29093;DHT22;16167;48.768;14.984;2022-12-20T05:33:47;-2.70;74.80
29093;DHT22;16167;48.768;14.984;2022-12-20T05:36:16;-2.80;78.20
29093;DHT22;16167;48.768;14.984;2022-12-20T05:38:44;-2.80;77.90
29093;DHT22;16167;48.768;14.984;2022-12-20T05:41:12;-2.80;77.60
29093;DHT22;16167;48.768;14.984;2022-12-20T05:43:40;-2.80;78.50
29093;DHT22;16167;48.768;14.984;2022-12-20T05:46:08;-2.80;82.00
29093;DHT22;16167;48.768;14.984;2022-12-20T05:48:36;-2.80;79.00
29093;DHT22;16167;48.768;14.984;2022-12-20T05:51:04;-2.90;80.20
29093;DHT22;16167;48.768;14.984;2022-12-20T05:53:34;-2.90;80.00
29093;DHT22;16167;48.768;14.984;2022-12-20T05:56:02;-2.90;83.30
29093;DHT22;16167;48.768;14.984;2022-12-20T05:58:30;-2.90;84.40
29093;DHT22;16167;48.768;14.984;2022-12-20T06:00:59;-2.90;84.30
29093;DHT22;16167;48.768;14.984;2022-12-20T06:03:27;-2.90;83.80
29093;DHT22;16167;48.768;14.984;2022-12-20T06:05:55;-2.90;84.30
29093;DHT22;16167;48.768;14.984;2022-12-20T06:08:23;-2.80;83.60
29093;DHT22;16167;48.768;14.984;2022-12-20T06:10:52;-2.90;83.00
29093;DHT22;16167;48.768;14.984;2022-12-20T06:13:20;-2.90;84.50
29093;DHT22;16167;48.768;14.984;2022-12-20T06:15:48;-2.90;84.70
29093;DHT22;16167;48.768;14.984;2022-12-20T06:18:16;-2.90;83.90
29093;DHT22;16167;48.768;14.984;2022-12-20T06:20:48;-2.90;83.00
29093;DHT22;16167;48.768;14.984;2022-12-20T06:23:16;-2.90;83.60
29093;DHT22;16167;48.768;14.984;2022-12-20T06:25:43;-2.80;84.90
29093;DHT22;16167;48.768;14.984;2022-12-20T06:28:13;-2.90;82.10
29093;DHT22;16167;48.768;14.984;2022-12-20T06:30:41;-2.90;80.30
29093;DHT22;16167;48.768;14.984;2022-12-20T06:33:09;-2.90;83.40
29093;DHT22;16167;48.768;14.984;2022-12-20T06:35:37;-2.90;80.90
29093;DHT22;16167;48.768;14.984;2022-12-20T06:38:05;-2.80;80.20
29093;DHT22;16167;48.768;14.984;2022-12-20T06:40:33;-2.80;79.60
29093;DHT22;16167;48.768;14.984;2022-12-20T06:43:01;-2.80;79.90
29093;DHT22;16167;48.768;14.984;2022-12-20T06:45:30;-2.90;83.90
29093;DHT22;16167;48.768;14.984;2022-12-20T06:48:06;-2.90;85.10
29093;DHT22;16167;48.768;14.984;2022-12-20T06:50:34;-2.90;84.80
29093;DHT22;16167;48.768;14.984;2022-12-20T06:53:02;-2.90;86.50
29093;DHT22;16167;48.768;14.984;2022-12-20T06:55:30;-2.90;87.40
29093;DHT22;16167;48.768;14.984;2022-12-20T06:57:57;-2.90;87.20
29093;DHT22;16167;48.768;14.984;2022-12-20T07:00:26;-2.90;87.70
29093;DHT22;16167;48.768;14.984;2022-12-20T07:02:55;-2.90;88.60
29093;DHT22;16167;48.768;14.984;2022-12-20T07:05:23;-2.90;88.30
29093;DHT22;16167;48.768;14.984;2022-12-20T07:07:51;-2.90;89.50
29093;DHT22;16167;48.768;14.984;2022-12-20T07:10:19;-2.90;89.10
29093;DHT22;16167;48.768;14.984;2022-12-20T07:12:46;-2.90;88.30
29093;DHT22;16167;48.768;14.984;2022-12-20T07:15:15;-2.90;89.10
29093;DHT22;16167;48.768;14.984;2022-12-20T07:17:43;-2.90;85.90
29093;DHT22;16167;48.768;14.984;2022-12-20T07:20:12;-2.80;86.70
29093;DHT22;16167;48.768;14.984;2022-12-20T07:22:40;-2.80;86.20
29093;DHT22;16167;48.768;14.984;2022-12-20T07:25:09;-2.80;84.10
29093;DHT22;16167;48.768;14.984;2022-12-20T07:27:37;-2.80;84.30
29093;DHT22;16167;48.768;14.984;2022-12-20T07:30:05;-2.70;83.40
29093;DHT22;16167;48.768;14.984;2022-12-20T07:32:33;-2.70;81.90
29093;DHT22;16167;48.768;14.984;2022-12-20T07:35:01;-2.70;81.50
29093;DHT22;16167;48.768;14.984;2022-12-20T07:37:30;-2.70;81.50
29093;DHT22;16167;48.768;14.984;2022-12-20T07:39:58;-2.70;84.60
29093;DHT22;16167;48.768;14.984;2022-12-20T07:42:26;-2.70;82.40
29093;DHT22;16167;48.768;14.984;2022-12-20T07:45:03;-2.60;80.20
29093;DHT22;16167;48.768;14.984;2022-12-20T07:47:31;-2.60;76.30
29093;DHT22;16167;48.768;14.984;2022-12-20T07:50:01;-2.50;75.90
29093;DHT22;16167;48.768;14.984;2022-12-20T07:52:28;-2.50;72.50
29093;DHT22;16167;48.768;14.984;2022-12-20T07:55:04;-2.50;71.00
29093;DHT22;16167;48.768;14.984;2022-12-20T07:57:35;-2.50;71.20
29093;DHT22;16167;48.768;14.984;2022-12-20T08:00:04;-2.50;70.10
29093;DHT22;16167;48.768;14.984;2022-12-20T08:02:34;-2.50;69.00
29093;DHT22;16167;48.768;14.984;2022-12-20T08:05:04;-2.50;70.70
29093;DHT22;16167;48.768;14.984;2022-12-20T08:07:34;-2.50;72.90
29093;DHT22;16167;48.768;14.984;2022-12-20T08:10:05;-2.50;71.50
29093;DHT22;16167;48.768;14.984;2022-12-20T08:12:33;-2.50;71.10
29093;DHT22;16167;48.768;14.984;2022-12-20T08:15:01;-2.50;67.90
29093;DHT22;16167;48.768;14.984;2022-12-20T08:17:29;-2.50;69.20
29093;DHT22;16167;48.768;14.984;2022-12-20T08:19:57;-2.50;70.90
29093;DHT22;16167;48.768;14.984;2022-12-20T08:22:26;-2.50;70.90
29093;DHT22;16167;48.768;14.984;2022-12-20T08:24:53;-2.50;70.30
29093;DHT22;16167;48.768;14.984;2022-12-20T08:27:23;-2.50;72.00
29093;DHT22;16167;48.768;14.984;2022-12-20T08:29:50;-2.40;69.40
29093;DHT22;16167;48.768;14.984;2022-12-20T08:32:18;-2.50;70.50
29093;DHT22;16167;48.768;14.984;2022-12-20T08:34:46;-2.40;72.80
29093;DHT22;16167;48.768;14.984;2022-12-20T08:37:14;-2.30;70.30
29093;DHT22;16167;48.768;14.984;2022-12-20T08:39:42;-2.20;61.60
29093;DHT22;16167;48.768;14.984;2022-12-20T08:42:10;-2.20;59.50
29093;DHT22;16167;48.768;14.984;2022-12-20T08:44:39;-2.10;57.10
29093;DHT22;16167;48.768;14.984;2022-12-20T08:47:07;-2.00;54.50
29093;DHT22;16167;48.768;14.984;2022-12-20T08:49:35;-2.00;48.50
29093;DHT22;16167;48.768;14.984;2022-12-20T08:52:11;-2.00;49.70
29093;DHT22;16167;48.768;14.984;2022-12-20T08:54:39;-1.90;48.00
29093;DHT22;16167;48.768;14.984;2022-12-20T08:57:07;-1.90;46.80
29093;DHT22;16167;48.768;14.984;2022-12-20T08:59:34;-1.90;48.90
29093;DHT22;16167;48.768;14.984;2022-12-20T09:02:04;-1.90;46.70
29093;DHT22;16167;48.768;14.984;2022-12-20T09:04:32;-1.80;48.60
29093;DHT22;16167;48.768;14.984;2022-12-20T09:07:00;-1.80;45.10
29093;DHT22;16167;48.768;14.984;2022-12-20T09:09:28;-1.60;49.80
29093;DHT22;16167;48.768;14.984;2022-12-20T09:11:55;-1.60;43.10
29093;DHT22;16167;48.768;14.984;2022-12-20T09:14:24;-1.60;37.00
29093;DHT22;16167;48.768;14.984;2022-12-20T09:16:51;-1.50;36.70
29093;DHT22;16167;48.768;14.984;2022-12-20T09:19:21;-1.50;31.80
29093;DHT22;16167;48.768;14.984;2022-12-20T09:21:48;-1.50;30.70
29093;DHT22;16167;48.768;14.984;2022-12-20T09:24:16;-1.60;33.60
29093;DHT22;16167;48.768;14.984;2022-12-20T09:26:44;-1.50;34.00
29093;DHT22;16167;48.768;14.984;2022-12-20T09:29:16;-1.50;26.40
29093;DHT22;16167;48.768;14.984;2022-12-20T09:31:53;-1.50;22.30
29093;DHT22;16167;48.768;14.984;2022-12-20T09:34:23;-1.40;24.60
29093;DHT22;16167;48.768;14.984;2022-12-20T09:36:51;-1.40;20.90
29093;DHT22;16167;48.768;14.984;2022-12-20T09:39:19;-1.40;24.90
29093;DHT22;16167;48.768;14.984;2022-12-20T09:41:47;-1.30;22.60
29093;DHT22;16167;48.768;14.984;2022-12-20T09:44:17;-1.30;20.20
29093;DHT22;16167;48.768;14.984;2022-12-20T09:46:48;-1.20;19.80
29093;DHT22;16167;48.768;14.984;2022-12-20T09:49:18;-1.20;18.40
29093;DHT22;16167;48.768;14.984;2022-12-20T09:51:51;-1.10;17.20
29093;DHT22;16167;48.768;14.984;2022-12-20T09:54:26;-1.00;9.20
29093;DHT22;16167;48.768;14.984;2022-12-20T09:56:58;-0.90;8.90
29093;DHT22;16167;48.768;14.984;2022-12-20T09:59:29;-1.00;11.20
29093;DHT22;16167;48.768;14.984;2022-12-20T10:02:07;-1.00;12.10
29093;DHT22;16167;48.768;14.984;2022-12-20T10:04:56;-1.10;12.30
29093;DHT22;16167;48.768;14.984;2022-12-20T10:07:29;-1.10;16.80
29093;DHT22;16167;48.768;14.984;2022-12-20T10:10:02;-1.10;23.10
29093;DHT22;16167;48.768;14.984;2022-12-20T10:12:32;-1.00;19.40
29093;DHT22;16167;48.768;14.984;2022-12-20T10:15:11;-1.00;16.20
29093;DHT22;16167;48.768;14.984;2022-12-20T10:17:45;-1.00;8.80
29093;DHT22;16167;48.768;14.984;2022-12-20T10:20:28;-1.00;5.60
29093;DHT22;16167;48.768;14.984;2022-12-20T10:22:59;-1.00;9.50
29093;DHT22;16167;48.768;14.984;2022-12-20T10:25:29;-1.00;8.60
29093;DHT22;16167;48.768;14.984;2022-12-20T10:27:59;-1.00;12.50
29093;DHT22;16167;48.768;14.984;2022-12-20T10:30:28;-0.90;13.30
29093;DHT22;16167;48.768;14.984;2022-12-20T10:32:56;-0.90;9.10
29093;DHT22;16167;48.768;14.984;2022-12-20T10:35:26;-0.90;11.20
29093;DHT22;16167;48.768;14.984;2022-12-20T10:38:00;-0.90;9.70
29093;DHT22;16167;48.768;14.984;2022-12-20T10:40:36;-0.90;8.00
29093;DHT22;16167;48.768;14.984;2022-12-20T10:43:24;-0.80;11.30
29093;DHT22;16167;48.768;14.984;2022-12-20T10:45:56;-0.80;10.60
29093;DHT22;16167;48.768;14.984;2022-12-20T10:48:28;-0.70;10.40
29093;DHT22;16167;48.768;14.984;2022-12-20T10:50:57;-0.70;9.20
29093;DHT22;16167;48.768;14.984;2022-12-20T10:53:27;-0.70;4.30
29093;DHT22;16167;48.768;14.984;2022-12-20T10:56:08;-0.70;7.60
29093;DHT22;16167;48.768;14.984;2022-12-20T10:58:37;-0.70;8.50
29093;DHT22;16167;48.768;14.984;2022-12-20T11:01:05;-0.70;8.10
29093;DHT22;16167;48.768;14.984;2022-12-20T11:03:51;-0.70;7.00
29093;DHT22;16167;48.768;14.984;2022-12-20T11:06:20;-0.60;6.40
29093;DHT22;16167;48.768;14.984;2022-12-20T11:08:50;-0.60;7.60
29093;DHT22;16167;48.768;14.984;2022-12-20T11:11:26;-0.60;5.90
29093;DHT22;16167;48.768;14.984;2022-12-20T11:13:55;-0.60;2.30
29093;DHT22;16167;48.768;14.984;2022-12-20T11:16:39;-0.60;5.50
29093;DHT22;16167;48.768;14.984;2022-12-20T11:19:13;-0.60;4.70
29093;DHT22;16167;48.768;14.984;2022-12-20T11:21:43;-0.70;8.30
29093;DHT22;16167;48.768;14.984;2022-12-20T11:24:17;-0.70;4.10
29093;DHT22;16167;48.768;14.984;2022-12-20T11:26:54;-0.60;3.40
29093;DHT22;16167;48.768;14.984;2022-12-20T11:29:29;-0.60;11.20
29093;DHT22;16167;48.768;14.984;2022-12-20T11:32:00;-0.60;10.40
29093;DHT22;16167;48.768;14.984;2022-12-20T11:34:34;-0.60;8.60
29093;DHT22;16167;48.768;14.984;2022-12-20T11:37:06;-0.60;8.40
29093;DHT22;16167;48.768;14.984;2022-12-20T11:39:39;-0.60;6.10
29093;DHT22;16167;48.768;14.984;2022-12-20T11:42:11;-0.60;6.60
29093;DHT22;16167;48.768;14.984;2022-12-20T11:44:46;-0.50;5.10
29093;DHT22;16167;48.768;14.984;2022-12-20T11:47:33;-0.50;2.80
29093;DHT22;16167;48.768;14.984;2022-12-20T11:50:18;-0.40;2.20
29093;DHT22;16167;48.768;14.984;2022-12-20T11:52:53;-0.40;1.00
29093;DHT22;16167;48.768;14.984;2022-12-20T11:55:23;-0.40;1.20
29093;DHT22;16167;48.768;14.984;2022-12-20T11:57:54;-0.30;1.00
29093;DHT22;16167;48.768;14.984;2022-12-20T12:00:44;-0.30;1.00
29093;DHT22;16167;48.768;14.984;2022-12-20T12:03:15;-0.20;1.00
29093;DHT22;16167;48.768;14.984;2022-12-20T12:05:46;-0.20;1.00
29093;DHT22;16167;48.768;14.984;2022-12-20T12:08:15;-0.20;1.00
29093;DHT22;16167;48.768;14.984;2022-12-20T12:10:49;-0.10;1.00
29093;DHT22;16167;48.768;14.984;2022-12-20T12:13:20;-0.20;1.00
29093;DHT22;16167;48.768;14.984;2022-12-20T12:15:52;-0.20;1.00
29093;DHT22;16167;48.768;14.984;2022-12-20T12:18:22;-0.10;1.00
29093;DHT22;16167;48.768;14.984;2022-12-20T12:20:52;-0.10;1.00
29093;DHT22;16167;48.768;14.984;2022-12-20T12:23:23;-0.20;1.00
29093;DHT22;16167;48.768;14.984;2022-12-20T12:25:53;-0.20;1.00
29093;DHT22;16167;48.768;14.984;2022-12-20T12:28:21;-0.10;1.00
29093;DHT22;16167;48.768;14.984;2022-12-20T12:30:52;-0.10;1.00
29093;DHT22;16167;48.768;14.984;2022-12-20T12:33:22;-0.20;1.00
29093;DHT22;16167;48.768;14.984;2022-12-20T12:35:55;-0.30;1.00
29093;DHT22;16167;48.768;14.984;2022-12-20T12:38:41;-0.40;1.00
29093;DHT22;16167;48.768;14.984;2022-12-20T12:41:28;-0.40;2.50
29093;DHT22;16167;48.768;14.984;2022-12-20T12:44:01;-0.40;1.00
29093;DHT22;16167;48.768;14.984;2022-12-20T12:46:34;-0.40;1.00
29093;DHT22;16167;48.768;14.984;2022-12-20T12:49:03;-0.40;1.30
29093;DHT22;16167;48.768;14.984;2022-12-20T12:51:33;-0.50;3.90
29093;DHT22;16167;48.768;14.984;2022-12-20T12:54:03;-0.50;4.70
29093;DHT22;16167;48.768;14.984;2022-12-20T12:56:40;-0.40;4.30
29093;DHT22;16167;48.768;14.984;2022-12-20T12:59:23;-0.40;1.00
29093;DHT22;16167;48.768;14.984;2022-12-20T13:01:51;-0.40;1.40
29093;DHT22;16167;48.768;14.984;2022-12-20T13:04:21;-0.40;2.70
29093;DHT22;16167;48.768;14.984;2022-12-20T13:07:00;-0.50;1.00
29093;DHT22;16167;48.768;14.984;2022-12-20T13:09:38;-0.50;1.00
29093;DHT22;16167;48.768;14.984;2022-12-20T13:17:51;-0.60;3.10
29093;DHT22;16167;48.768;14.984;2022-12-20T13:20:20;-0.60;5.90
29093;DHT22;16167;48.768;14.984;2022-12-20T13:25:36;-0.70;14.60
29093;DHT22;16167;48.768;14.984;2022-12-20T13:33:40;-0.90;17.80
29093;DHT22;16167;48.768;14.984;2022-12-20T13:38:55;-0.90;23.10
29093;DHT22;16167;48.768;14.984;2022-12-20T13:41:35;-1.00;23.10
29093;DHT22;16167;48.768;14.984;2022-12-20T13:44:17;-1.00;26.10
29093;DHT22;16167;48.768;14.984;2022-12-20T13:46:46;-1.00;23.90
29093;DHT22;16167;48.768;14.984;2022-12-20T13:49:19;-1.10;26.40
29093;DHT22;16167;48.768;14.984;2022-12-20T13:51:48;-1.10;25.30
29093;DHT22;16167;48.768;14.984;2022-12-20T13:54:16;-1.10;26.80
29093;DHT22;16167;48.768;14.984;2022-12-20T13:56:52;-1.10;28.40
29093;DHT22;16167;48.768;14.984;2022-12-20T13:59:21;-1.20;29.00
29093;DHT22;16167;48.768;14.984;2022-12-20T14:01:52;-1.20;30.20
29093;DHT22;16167;48.768;14.984;2022-12-20T14:04:23;-1.20;31.20
29093;DHT22;16167;48.768;14.984;2022-12-20T14:06:53;-1.20;32.20
29093;DHT22;16167;48.768;14.984;2022-12-20T14:09:29;-1.30;32.20
29093;DHT22;16167;48.768;14.984;2022-12-20T14:12:04;-1.30;32.80
29093;DHT22;16167;48.768;14.984;2022-12-20T14:14:35;-1.30;34.60
29093;DHT22;16167;48.768;14.984;2022-12-20T14:17:21;-1.30;35.10
29093;DHT22;16167;48.768;14.984;2022-12-20T14:20:02;-1.30;38.30
29093;DHT22;16167;48.768;14.984;2022-12-20T14:22:30;-1.40;42.20
29093;DHT22;16167;48.768;14.984;2022-12-20T14:24:58;-1.50;47.40
29093;DHT22;16167;48.768;14.984;2022-12-20T14:27:28;-1.50;49.00
29093;DHT22;16167;48.768;14.984;2022-12-20T14:29:59;-1.50;48.40
29093;DHT22;16167;48.768;14.984;2022-12-20T14:32:27;-1.50;45.50
29093;DHT22;16167;48.768;14.984;2022-12-20T14:34:55;-1.50;47.00
29093;DHT22;16167;48.768;14.984;2022-12-20T14:37:27;-1.50;49.00
29093;DHT22;16167;48.768;14.984;2022-12-20T14:39:57;-1.50;51.40
29093;DHT22;16167;48.768;14.984;2022-12-20T14:42:28;-1.60;53.00
29093;DHT22;16167;48.768;14.984;2022-12-20T14:45:14;-1.60;53.40
29093;DHT22;16167;48.768;14.984;2022-12-20T14:47:47;-1.60;54.70
29093;DHT22;16167;48.768;14.984;2022-12-20T14:50:16;-1.60;53.90
29093;DHT22;16167;48.768;14.984;2022-12-20T14:52:46;-1.60;54.30
29093;DHT22;16167;48.768;14.984;2022-12-20T14:55:15;-1.70;55.40
29093;DHT22;16167;48.768;14.984;2022-12-20T14:57:45;-1.70;58.10
29093;DHT22;16167;48.768;14.984;2022-12-20T15:00:19;-1.70;59.70
29093;DHT22;16167;48.768;14.984;2022-12-20T15:02:51;-1.70;61.60
29093;DHT22;16167;48.768;14.984;2022-12-20T15:08:19;-1.80;68.70
29093;DHT22;16167;48.768;14.984;2022-12-20T15:10:56;-1.80;66.60
29093;DHT22;16167;48.768;14.984;2022-12-20T15:13:29;-1.80;66.30
29093;DHT22;16167;48.768;14.984;2022-12-20T15:15:59;-1.80;65.50
29093;DHT22;16167;48.768;14.984;2022-12-20T15:18:27;-1.80;66.70
29093;DHT22;16167;48.768;14.984;2022-12-20T15:21:02;-1.90;68.10
29093;DHT22;16167;48.768;14.984;2022-12-20T15:23:33;-2.00;72.00
29093;DHT22;16167;48.768;14.984;2022-12-20T15:26:01;-2.00;74.00
29093;DHT22;16167;48.768;14.984;2022-12-20T15:28:29;-2.00;76.20
29093;DHT22;16167;48.768;14.984;2022-12-20T15:30:56;-2.00;76.40
29093;DHT22;16167;48.768;14.984;2022-12-20T15:33:25;-2.00;76.30
29093;DHT22;16167;48.768;14.984;2022-12-20T15:35:55;-2.00;78.40
29093;DHT22;16167;48.768;14.984;2022-12-20T15:38:23;-2.10;80.40
29093;DHT22;16167;48.768;14.984;2022-12-20T15:41:15;-2.00;80.80
29093;DHT22;16167;48.768;14.984;2022-12-20T15:43:44;-2.00;78.90
29093;DHT22;16167;48.768;14.984;2022-12-20T15:46:12;-2.00;77.70
29093;DHT22;16167;48.768;14.984;2022-12-20T15:48:40;-2.00;77.10
29093;DHT22;16167;48.768;14.984;2022-12-20T15:51:12;-2.00;77.80
29093;DHT22;16167;48.768;14.984;2022-12-20T15:53:41;-2.00;79.80
29093;DHT22;16167;48.768;14.984;2022-12-20T15:56:11;-2.10;82.50
29093;DHT22;16167;48.768;14.984;2022-12-20T15:58:43;-2.10;82.70